Time;durP1;ratioP1;P1;durP2;ratioP2;P2;SDS_P1;SDS_P2;PMS_P1;PMS_P2;Temp;Humidity;BMP_temperature;BMP_pressure;BME280_temperature;BME280_humidity;BME280_pressure;Samples;Min_cycle;Max_cycle;Signal;HPM_P1;HPM_P2
2022/10/14 00:01:12;;;;;;;27.00;10.52;;;11.90;99.90;;;;;;5007408;28;20676;-76
2022/10/14 00:03:39;;;;;;;25.50;8.80;;;11.90;99.90;;;;;;5023161;28;20040;-75
2022/10/14 00:06:17;;;;;;;28.55;10.05;;;11.90;99.90;;;;;;5029218;28;20264;-76
2022/10/14 00:08:46;;;;;;;19.80;8.95;;;11.90;99.90;;;;;;5045108;28;20024;-76
2022/10/14 00:11:21;;;;;;;21.23;10.52;;;11.80;99.90;;;;;;5022840;28;20405;-75
2022/10/14 00:13:49;;;;;;;112.85;13.20;;;11.80;99.90;;;;;;5040843;28;20050;-75
2022/10/14 00:16:28;;;;;;;54.30;11.95;;;11.80;99.90;;;;;;5014039;28;20029;-76
2022/10/14 00:18:57;;;;;;;31.08;9.75;;;11.80;99.90;;;;;;5023428;28;20655;-74
2022/10/14 00:21:25;;;;;;;21.92;8.93;;;11.80;99.90;;;;;;5028424;28;20037;-76
2022/10/14 00:23:51;;;;;;;18.65;9.73;;;11.80;99.90;;;;;;5012899;28;20041;-76
2022/10/14 00:26:41;;;;;;;41.58;12.35;;;11.80;99.90;;;;;;5027172;28;20485;-75
2022/10/14 00:29:12;;;;;;;36.47;12.63;;;11.80;99.90;;;;;;5027875;28;20044;-76
2022/10/14 00:31:39;;;;;;;33.75;11.60;;;11.80;99.90;;;;;;5009542;28;20480;-76
2022/10/14 00:34:06;;;;;;;32.20;11.20;;;11.80;99.90;;;;;;5028211;28;20900;-76
2022/10/14 00:36:32;;;;;;;32.25;12.63;;;11.80;99.90;;;;;;5030238;28;20045;-76
2022/10/14 00:38:59;;;;;;;33.00;11.82;;;11.90;99.90;;;;;;5030473;28;20543;-76
2022/10/14 00:41:29;;;;;;;36.97;11.30;;;11.90;99.90;;;;;;5031424;28;20476;-75
2022/10/14 00:44:25;;;;;;;26.48;11.77;;;11.90;99.90;;;;;;5031467;28;20025;-76
2022/10/14 00:46:51;;;;;;;61.28;9.95;;;11.90;99.90;;;;;;5025229;28;20547;-76
2022/10/14 00:49:25;;;;;;;29.77;10.65;;;11.90;99.90;;;;;;5033383;28;20033;-76
2022/10/14 00:52:00;;;;;;;36.72;11.55;;;11.80;99.90;;;;;;5029217;28;20136;-75
2022/10/14 00:54:38;;;;;;;70.85;11.93;;;11.80;99.90;;;;;;5027774;28;20041;-75
2022/10/14 00:57:05;;;;;;;33.70;9.23;;;11.80;99.90;;;;;;5020635;28;20036;-75
2022/10/14 00:59:33;;;;;;;103.00;12.40;;;11.80;99.90;;;;;;5015196;28;20036;-76
2022/10/14 01:01:59;;;;;;;41.97;10.20;;;11.80;99.90;;;;;;5014533;28;20045;-75
2022/10/14 01:04:26;;;;;;;48.58;10.10;;;11.80;99.90;;;;;;5030296;28;20028;-74
2022/10/14 01:06:55;;;;;;;36.25;10.57;;;11.80;99.90;;;;;;5032778;28;20040;-75
2022/10/14 01:09:31;;;;;;;99.28;11.73;;;11.80;99.90;;;;;;5028755;28;20092;-74
2022/10/14 01:12:11;;;;;;;63.90;10.35;;;11.80;99.90;;;;;;5018482;28;20025;-74
2022/10/14 01:15:14;;;;;;;33.25;9.52;;;11.80;99.90;;;;;;5028857;28;20045;-75
2022/10/14 01:18:02;;;;;;;125.25;16.20;;;11.80;99.90;;;;;;5018117;28;20095;-74
2022/10/14 01:20:56;;;;;;;50.72;11.35;;;11.80;99.90;;;;;;5025378;28;20045;-75
2022/10/14 01:23:52;;;;;;;33.70;9.07;;;11.70;99.90;;;;;;5014098;28;20496;-75
2022/10/14 01:26:44;;;;;;;38.67;9.02;;;11.80;99.90;;;;;;5018343;28;20045;-75
2022/10/14 01:29:16;;;;;;;63.00;10.93;;;11.70;99.90;;;;;;5031764;28;20041;-75
2022/10/14 01:32:01;;;;;;;29.10;9.00;;;11.70;99.90;;;;;;5018604;28;20041;-74
2022/10/14 01:34:37;;;;;;;35.72;10.57;;;11.70;99.90;;;;;;5029814;28;20034;-74
2022/10/14 01:37:11;;;;;;;102.13;11.57;;;11.70;99.90;;;;;;5030562;28;20025;-74
2022/10/14 01:39:48;;;;;;;43.22;8.75;;;11.70;99.90;;;;;;5031003;28;20030;-74
2022/10/14 01:42:21;;;;;;;70.32;9.52;;;11.70;99.90;;;;;;5031092;28;20045;-75
2022/10/14 01:44:55;;;;;;;33.88;9.13;;;11.70;99.90;;;;;;5009485;28;20044;-75
2022/10/14 01:47:25;;;;;;;24.10;9.00;;;11.70;99.90;;;;;;5028808;28;20046;-75
2022/10/14 01:50:12;;;;;;;30.08;7.55;;;11.70;99.90;;;;;;5014516;28;20045;-75
2022/10/14 01:52:49;;;;;;;28.33;7.70;;;11.70;99.90;;;;;;5036203;28;20055;-75
2022/10/14 01:55:22;;;;;;;17.08;6.68;;;11.70;99.90;;;;;;5029012;28;20040;-74
2022/10/14 01:57:52;;;;;;;34.92;8.02;;;11.70;99.90;;;;;;5028639;28;20030;-75
2022/10/14 02:00:18;;;;;;;33.00;8.38;;;11.60;99.90;;;;;;5030626;28;20648;-74
2022/10/14 02:02:45;;;;;;;31.60;6.75;;;11.60;99.90;;;;;;5030533;28;20032;-74
2022/10/14 02:05:19;;;;;;;25.33;7.72;;;11.50;99.90;;;;;;5026637;28;20504;-74
2022/10/14 02:07:55;;;;;;;32.33;8.05;;;11.50;99.90;;;;;;5021641;28;20037;-74
2022/10/14 02:10:32;;;;;;;26.42;7.70;;;11.60;99.90;;;;;;5031702;28;20029;-74
2022/10/14 02:13:20;;;;;;;29.50;8.27;;;11.50;99.90;;;;;;5025677;28;20056;-74
2022/10/14 02:16:08;;;;;;;403.77;21.58;;;11.60;99.90;;;;;;5028768;28;20480;-75
2022/10/14 02:18:44;;;;;;;42.67;9.07;;;11.60;99.90;;;;;;5000458;28;20041;-74
2022/10/14 02:21:23;;;;;;;41.40;8.82;;;11.50;99.90;;;;;;5029775;28;20029;-75
2022/10/14 02:24:27;;;;;;;27.25;8.70;;;11.50;99.90;;;;;;5016431;28;20578;-75
2022/10/14 02:26:56;;;;;;;26.90;8.93;;;11.60;99.90;;;;;;5010544;28;20034;-75
2022/10/14 02:29:25;;;;;;;26.95;7.82;;;11.60;99.90;;;;;;5008505;28;20531;-74
2022/10/14 02:31:55;;;;;;;27.48;8.63;;;11.60;99.90;;;;;;5025146;28;20032;-74
2022/10/14 02:34:24;;;;;;;22.27;8.23;;;11.60;99.90;;;;;;5020557;28;20036;-74
2022/10/14 02:36:53;;;;;;;31.83;9.18;;;11.60;99.90;;;;;;5038651;28;20041;-75
2022/10/14 02:39:26;;;;;;;22.67;9.07;;;11.60;99.90;;;;;;4992686;28;20049;-76
2022/10/14 02:41:53;;;;;;;17.73;8.35;;;11.60;99.90;;;;;;5010419;28;20044;-74
2022/10/14 02:44:22;;;;;;;24.23;9.63;;;11.60;99.90;;;;;;5025667;28;20042;-75
2022/10/14 02:46:49;;;;;;;35.42;8.63;;;11.60;99.90;;;;;;4995890;28;20037;-76
2022/10/14 02:49:16;;;;;;;21.35;10.13;;;11.60;99.90;;;;;;5030918;28;20040;-75
2022/10/14 02:51:43;;;;;;;20.45;8.82;;;11.60;99.90;;;;;;5044343;28;20048;-75
2022/10/14 02:54:10;;;;;;;22.13;8.93;;;11.60;99.90;;;;;;5012569;28;20030;-75
2022/10/14 02:56:37;;;;;;;23.80;7.47;;;11.60;99.90;;;;;;5016965;28;20037;-75
2022/10/14 02:59:03;;;;;;;25.77;10.63;;;11.60;99.90;;;;;;5033051;28;20029;-76
2022/10/14 03:01:30;;;;;;;24.52;9.27;;;11.60;99.90;;;;;;5034585;28;20373;-76
2022/10/14 03:03:57;;;;;;;28.33;10.27;;;11.60;99.90;;;;;;5017504;28;20052;-76
2022/10/14 03:06:24;;;;;;;24.40;8.90;;;11.60;99.90;;;;;;5022989;28;20045;-75
2022/10/14 03:08:50;;;;;;;31.33;9.68;;;11.60;99.90;;;;;;5017340;28;20052;-75
2022/10/14 03:11:16;;;;;;;40.00;10.73;;;11.60;99.90;;;;;;5015251;28;20041;-76
2022/10/14 03:13:43;;;;;;;22.00;9.85;;;11.60;99.90;;;;;;5030052;28;20048;-76
2022/10/14 03:16:10;;;;;;;39.00;12.60;;;11.60;99.90;;;;;;5005491;28;20484;-76
2022/10/14 03:18:41;;;;;;;31.38;11.75;;;11.60;99.90;;;;;;5000674;28;20389;-76
2022/10/14 03:21:18;;;;;;;22.45;10.48;;;11.60;99.90;;;;;;5012870;28;20041;-76
2022/10/14 03:23:45;;;;;;;39.03;9.55;;;11.60;99.90;;;;;;5034607;28;20140;-75
2022/10/14 03:26:12;;;;;;;60.08;12.88;;;11.60;99.90;;;;;;5032848;28;20488;-76
2022/10/14 03:28:41;;;;;;;73.78;13.38;;;11.60;99.90;;;;;;5036409;28;20048;-76
2022/10/14 03:31:15;;;;;;;36.22;11.98;;;11.60;99.90;;;;;;5034071;28;20076;-76
2022/10/14 03:34:02;;;;;;;30.70;9.43;;;11.60;99.90;;;;;;5032237;28;20075;-76
2022/10/14 03:36:30;;;;;;;26.63;11.93;;;11.60;99.90;;;;;;5034986;28;20037;-76
2022/10/14 03:38:57;;;;;;;106.22;16.05;;;11.60;99.90;;;;;;5036964;28;20062;-75
2022/10/14 03:41:38;;;;;;;97.68;15.85;;;11.60;99.90;;;;;;5016328;28;20041;-76
2022/10/14 03:44:06;;;;;;;29.15;11.68;;;11.60;99.90;;;;;;5032334;28;20519;-76
2022/10/14 03:46:34;;;;;;;35.08;12.07;;;11.60;99.90;;;;;;5019015;28;20056;-76
2022/10/14 03:49:01;;;;;;;38.40;13.50;;;11.60;99.90;;;;;;5001958;28;20033;-76
2022/10/14 03:51:27;;;;;;;65.43;12.15;;;11.60;99.90;;;;;;5036895;28;20036;-76
2022/10/14 03:54:05;;;;;;;35.30;11.18;;;11.60;99.90;;;;;;5035608;28;20033;-76
2022/10/14 03:56:32;;;;;;;40.67;12.52;;;11.60;99.90;;;;;;5020536;28;20435;-76
2022/10/14 03:58:59;;;;;;;34.30;11.48;;;11.60;99.90;;;;;;5019674;28;20397;-75
2022/10/14 04:01:25;;;;;;;35.65;11.05;;;11.60;99.90;;;;;;5033374;28;20033;-77
2022/10/14 04:04:06;;;;;;;32.88;11.32;;;11.60;99.90;;;;;;5014969;28;20076;-76
2022/10/14 04:06:34;;;;;;;32.65;13.70;;;11.70;99.90;;;;;;5021727;28;20052;-74
2022/10/14 04:09:03;;;;;;;30.67;12.93;;;11.70;99.90;;;;;;5017799;28;20030;-74
2022/10/14 04:11:35;;;;;;;29.15;11.02;;;11.70;99.90;;;;;;5035972;28;20373;-75
2022/10/14 04:14:05;;;;;;;29.40;11.20;;;11.70;99.90;;;;;;5015372;28;20508;-74
2022/10/14 04:16:37;;;;;;;26.20;11.32;;;11.70;99.90;;;;;;5035554;28;20044;-75
2022/10/14 04:19:10;;;;;;;37.10;11.07;;;11.70;99.90;;;;;;5029530;28;20033;-74
2022/10/14 04:21:39;;;;;;;24.60;12.07;;;11.70;99.90;;;;;;5033202;28;20026;-75
2022/10/14 04:24:06;;;;;;;34.05;15.23;;;11.70;99.90;;;;;;5032386;28;20037;-75
2022/10/14 04:26:38;;;;;;;22.40;11.68;;;11.70;99.90;;;;;;5018200;28;20522;-75
2022/10/14 04:29:11;;;;;;;41.63;12.57;;;11.70;99.90;;;;;;5018597;28;20048;-75
2022/10/14 04:31:49;;;;;;;37.20;12.55;;;11.80;99.90;;;;;;5033054;28;20037;-74
2022/10/14 04:34:16;;;;;;;36.13;13.75;;;11.80;99.90;;;;;;5018477;28;20041;-75
2022/10/14 04:36:43;;;;;;;39.63;14.40;;;11.70;99.90;;;;;;5015744;28;20044;-75
2022/10/14 04:39:23;;;;;;;39.78;13.90;;;11.80;99.90;;;;;;5033652;28;20380;-75
2022/10/14 04:41:50;;;;;;;28.77;14.40;;;11.80;99.90;;;;;;5021597;28;20044;-76
2022/10/14 04:44:19;;;;;;;30.80;13.80;;;11.80;99.90;;;;;;5029617;28;20037;-75
2022/10/14 04:46:49;;;;;;;25.73;13.48;;;11.80;99.90;;;;;;5032497;28;20048;-75
2022/10/14 04:49:17;;;;;;;27.92;13.27;;;11.80;99.90;;;;;;5025124;28;20041;-75
2022/10/14 04:51:52;;;;;;;24.90;11.75;;;11.80;99.90;;;;;;5031911;28;20028;-75
2022/10/14 04:54:28;;;;;;;28.02;12.82;;;11.80;99.90;;;;;;5016942;28;20422;-75
2022/10/14 04:56:57;;;;;;;31.50;15.05;;;11.80;99.90;;;;;;5019535;28;20412;-75
2022/10/14 04:59:23;;;;;;;27.33;14.35;;;11.80;99.90;;;;;;5014539;28;20037;-75
2022/10/14 05:01:56;;;;;;;30.20;15.82;;;11.80;99.90;;;;;;5033209;28;20040;-75
2022/10/14 05:04:30;;;;;;;30.40;14.30;;;11.90;99.90;;;;;;5020912;28;20472;-76
2022/10/14 05:06:58;;;;;;;34.90;15.68;;;11.80;99.90;;;;;;5029465;28;20041;-75
2022/10/14 05:09:24;;;;;;;42.63;16.40;;;11.90;99.90;;;;;;5001249;28;20510;-76
2022/10/14 05:11:51;;;;;;;43.95;16.92;;;11.90;99.90;;;;;;5017025;28;20040;-75
2022/10/14 05:14:21;;;;;;;25.58;13.18;;;11.90;99.90;;;;;;5011027;28;20057;-76
2022/10/14 05:16:55;;;;;;;28.23;14.73;;;11.90;99.90;;;;;;5029639;28;20029;-76
2022/10/14 05:19:27;;;;;;;31.57;15.07;;;11.90;99.90;;;;;;5034273;28;20037;-76
2022/10/14 05:21:53;;;;;;;32.13;14.90;;;11.90;99.90;;;;;;5031054;28;20042;-75
2022/10/14 05:24:26;;;;;;;38.03;16.20;;;11.90;99.90;;;;;;5028332;28;20038;-76
2022/10/14 05:26:52;;;;;;;39.17;13.70;;;11.90;99.90;;;;;;5030304;28;20049;-76
2022/10/14 05:29:18;;;;;;;34.97;16.38;;;11.90;99.90;;;;;;5016099;28;20476;-75
2022/10/14 05:31:48;;;;;;;41.45;16.73;;;11.90;99.90;;;;;;5032983;28;20056;-76
2022/10/14 05:34:30;;;;;;;45.70;15.82;;;12.00;99.90;;;;;;5013275;28;20029;-76
2022/10/14 05:36:56;;;;;;;35.88;13.13;;;12.00;99.90;;;;;;5014977;28;20037;-76
2022/10/14 05:39:23;;;;;;;43.33;18.17;;;11.90;99.90;;;;;;5016044;28;20048;-76
2022/10/14 05:41:49;;;;;;;39.72;17.15;;;12.00;99.90;;;;;;5015969;28;20048;-76
2022/10/14 05:44:21;;;;;;;40.75;15.82;;;12.00;99.90;;;;;;5032347;28;20026;-76
2022/10/14 05:46:49;;;;;;;35.35;14.18;;;12.00;99.90;;;;;;5032123;28;20037;-75
2022/10/14 05:49:15;;;;;;;32.25;13.77;;;12.00;99.90;;;;;;5028844;28;20036;-75
2022/10/14 05:51:43;;;;;;;38.13;15.05;;;12.00;99.90;;;;;;5033012;28;20516;-76
2022/10/14 05:54:16;;;;;;;40.15;14.50;;;12.00;99.90;;;;;;5012811;28;20038;-76
2022/10/14 05:56:43;;;;;;;29.52;15.50;;;12.10;99.90;;;;;;5030575;28;20041;-76
2022/10/14 05:59:10;;;;;;;48.30;16.45;;;12.10;99.90;;;;;;5029188;28;20089;-75
2022/10/14 06:01:38;;;;;;;44.38;14.75;;;12.10;99.90;;;;;;5043639;28;20037;-75
2022/10/14 06:04:04;;;;;;;33.47;16.50;;;12.20;99.90;;;;;;5027148;28;20112;-75
2022/10/14 06:06:30;;;;;;;22.92;13.52;;;12.10;99.90;;;;;;5012604;28;20026;-75
2022/10/14 06:08:57;;;;;;;27.60;15.98;;;12.20;99.90;;;;;;5018604;28;20524;-75
2022/10/14 06:11:23;;;;;;;45.28;18.15;;;12.20;99.90;;;;;;5025442;28;20037;-75
2022/10/14 06:13:51;;;;;;;42.20;16.40;;;12.20;99.90;;;;;;5025233;28;20501;-76
2022/10/14 06:16:17;;;;;;;48.10;17.75;;;12.20;99.90;;;;;;5018500;28;20056;-75
2022/10/14 06:18:43;;;;;;;21.73;12.10;;;12.20;99.90;;;;;;5011485;28;20041;-76
2022/10/14 06:21:11;;;;;;;35.95;15.27;;;12.20;99.90;;;;;;4996455;28;20033;-77
2022/10/14 06:23:37;;;;;;;25.63;15.40;;;12.20;99.90;;;;;;5019966;28;20400;-75
2022/10/14 06:26:05;;;;;;;28.15;13.77;;;12.30;99.90;;;;;;5027065;28;20029;-76
2022/10/14 06:28:31;;;;;;;19.65;13.30;;;12.30;99.90;;;;;;5029482;28;20545;-75
2022/10/14 06:30:58;;;;;;;19.30;12.18;;;12.30;99.90;;;;;;5033845;28;20382;-76
2022/10/14 06:33:26;;;;;;;22.25;14.63;;;12.30;99.90;;;;;;5015183;28;20478;-76
2022/10/14 06:35:53;;;;;;;20.30;13.88;;;12.30;99.90;;;;;;5027995;28;20037;-76
2022/10/14 06:38:19;;;;;;;23.13;13.23;;;12.30;99.90;;;;;;5028950;28;20053;-77
2022/10/14 06:40:45;;;;;;;20.17;13.27;;;12.40;99.90;;;;;;5031439;28;20029;-77
2022/10/14 06:43:11;;;;;;;24.65;14.20;;;12.40;99.90;;;;;;5028537;28;20041;-76
2022/10/14 06:45:38;;;;;;;21.73;14.00;;;12.40;99.90;;;;;;5029844;28;20033;-76
2022/10/14 06:48:04;;;;;;;22.95;13.80;;;12.40;99.90;;;;;;5026770;28;20042;-76
2022/10/14 06:50:31;;;;;;;24.42;14.65;;;12.50;99.90;;;;;;5037917;28;20032;-75
2022/10/14 06:52:57;;;;;;;30.05;16.05;;;12.50;99.90;;;;;;5021132;28;20060;-75
2022/10/14 06:55:23;;;;;;;19.05;11.98;;;12.50;99.90;;;;;;5020418;28;20032;-75
2022/10/14 06:57:49;;;;;;;26.42;17.30;;;12.60;99.90;;;;;;5028436;28;20104;-75
2022/10/14 07:00:16;;;;;;;19.85;14.43;;;12.60;99.90;;;;;;5034236;28;20060;-74
2022/10/14 07:02:43;;;;;;;23.95;14.40;;;12.60;99.90;;;;;;5033197;28;20025;-75
2022/10/14 07:05:10;;;;;;;69.30;29.38;;;12.70;99.90;;;;;;5031039;28;20033;-76
2022/10/14 07:07:36;;;;;;;26.63;18.98;;;12.70;99.90;;;;;;5031936;28;20481;-75
2022/10/14 07:10:02;;;;;;;24.92;18.27;;;12.70;99.90;;;;;;5018460;28;20064;-76
2022/10/14 07:12:29;;;;;;;25.08;17.92;;;12.80;99.90;;;;;;5031455;28;20029;-75
2022/10/14 07:14:55;;;;;;;24.70;17.40;;;12.80;99.90;;;;;;5029814;28;20045;-75
2022/10/14 07:17:22;;;;;;;26.42;19.48;;;12.90;99.90;;;;;;5036355;28;20030;-76
2022/10/14 07:19:48;;;;;;;25.55;18.38;;;12.90;99.90;;;;;;5035301;28;20033;-76
2022/10/14 07:22:16;;;;;;;27.15;18.50;;;12.90;99.90;;;;;;5029692;28;20060;-75
2022/10/14 07:24:43;;;;;;;34.03;21.95;;;13.00;99.90;;;;;;5024352;28;20309;-75
2022/10/14 07:27:10;;;;;;;17.70;13.63;;;13.00;99.90;;;;;;5026639;28;20392;-75
2022/10/14 07:29:36;;;;;;;27.88;19.45;;;13.10;99.90;;;;;;4994570;28;20041;-76
2022/10/14 07:32:02;;;;;;;24.75;19.05;;;13.10;99.90;;;;;;5013730;28;20053;-76
2022/10/14 07:34:29;;;;;;;24.25;17.10;;;13.10;99.90;;;;;;5024511;28;20044;-76
2022/10/14 07:36:55;;;;;;;19.25;14.35;;;13.10;99.90;;;;;;5011051;28;20030;-76
2022/10/14 07:39:22;;;;;;;21.27;16.20;;;13.20;99.90;;;;;;5029594;28;20033;-75
2022/10/14 07:41:48;;;;;;;20.25;15.05;;;13.20;99.90;;;;;;5021952;28;20037;-75
2022/10/14 07:44:16;;;;;;;22.90;16.48;;;13.30;99.90;;;;;;5024101;28;20036;-75
2022/10/14 07:46:43;;;;;;;25.23;18.13;;;13.30;99.90;;;;;;5028297;28;20500;-75
2022/10/14 07:49:16;;;;;;;22.77;17.13;;;13.30;99.90;;;;;;5011784;28;20120;-75
2022/10/14 07:51:43;;;;;;;26.77;18.45;;;13.30;99.90;;;;;;5028828;28;20038;-75
2022/10/14 07:54:22;;;;;;;15.98;12.95;;;13.40;99.90;;;;;;5026466;28;20044;-76
2022/10/14 07:56:49;;;;;;;17.20;13.00;;;13.40;99.90;;;;;;5025691;28;20038;-75
2022/10/14 07:59:17;;;;;;;14.98;11.45;;;13.40;99.90;;;;;;5024886;28;20029;-76
2022/10/14 08:01:48;;;;;;;16.27;12.35;;;13.50;99.90;;;;;;5030520;28;20037;-75
2022/10/14 08:04:14;;;;;;;13.20;10.35;;;13.50;99.90;;;;;;5022762;28;20476;-75
2022/10/14 08:06:41;;;;;;;16.98;13.25;;;13.50;99.90;;;;;;5021882;28;20076;-75
2022/10/14 08:09:09;;;;;;;17.10;13.93;;;13.50;99.90;;;;;;5013117;28;20037;-76
2022/10/14 08:11:36;;;;;;;15.30;12.90;;;13.60;99.90;;;;;;5023343;28;20396;-75
2022/10/14 08:14:03;;;;;;;14.55;12.50;;;13.60;99.90;;;;;;5028398;28;20061;-74
2022/10/14 08:16:33;;;;;;;17.55;11.63;;;13.60;99.90;;;;;;5020306;28;20412;-75
2022/10/14 08:19:03;;;;;;;9.60;8.27;;;13.70;99.90;;;;;;5027579;28;20040;-75
2022/10/14 08:21:29;;;;;;;13.18;11.70;;;13.70;99.90;;;;;;5029398;28;20052;-74
2022/10/14 08:23:56;;;;;;;10.23;9.10;;;13.70;99.90;;;;;;5026146;28;20040;-75
2022/10/14 08:26:26;;;;;;;11.20;9.88;;;13.70;99.90;;;;;;5031434;28;20128;-75
2022/10/14 08:28:52;;;;;;;10.57;9.48;;;13.80;99.90;;;;;;5026776;28;20044;-74
2022/10/14 08:31:19;;;;;;;11.80;9.20;;;13.80;99.90;;;;;;5027318;28;20041;-75
2022/10/14 08:33:45;;;;;;;8.02;7.22;;;13.80;99.90;;;;;;5010135;28;20045;-75
2022/10/14 08:36:12;;;;;;;9.25;8.13;;;13.80;99.90;;;;;;5028930;28;20492;-76
2022/10/14 08:38:38;;;;;;;8.90;8.00;;;13.90;99.90;;;;;;5030690;28;20029;-76
2022/10/14 08:41:11;;;;;;;9.05;8.15;;;13.90;99.90;;;;;;5013724;28;20705;-76
2022/10/14 08:43:40;;;;;;;8.52;7.53;;;13.90;99.90;;;;;;5029353;28;20036;-76
2022/10/14 08:46:24;;;;;;;6.88;6.15;;;13.90;99.90;;;;;;5029110;28;20046;-78
2022/10/14 08:49:01;;;;;;;8.68;7.60;;;14.00;99.90;;;;;;5011139;28;20524;-75
2022/10/14 08:51:29;;;;;;;9.98;8.98;;;14.00;99.90;;;;;;5031665;28;20625;-74
2022/10/14 08:54:05;;;;;;;8.70;7.63;;;14.00;99.90;;;;;;5012758;28;20028;-73
2022/10/14 08:56:33;;;;;;;9.07;8.05;;;14.00;99.90;;;;;;5031767;28;20052;-74
2022/10/14 08:59:06;;;;;;;12.85;11.25;;;14.10;99.90;;;;;;5030644;28;20036;-74
2022/10/14 09:01:42;;;;;;;;;;;14.10;99.90;;;;;;5046578;28;20045;-73
2022/10/14 09:04:13;;;;;;;10.00;8.10;;;14.10;99.90;;;;;;5032357;28;19917;-76
2022/10/14 09:06:44;;;;;;;10.45;9.45;;;14.20;99.90;;;;;;5033986;28;20037;-75
2022/10/14 09:09:10;;;;;;;8.15;7.35;;;14.20;99.90;;;;;;5028885;28;20037;-77
2022/10/14 09:11:41;;;;;;;9.13;8.20;;;14.20;99.90;;;;;;5025620;28;20404;-76
2022/10/14 09:14:12;;;;;;;14.48;12.95;;;14.20;99.90;;;;;;5028331;28;20049;-75
2022/10/14 09:16:40;;;;;;;14.15;11.55;;;14.20;99.90;;;;;;5009198;28;20041;-75
2022/10/14 09:19:37;;;;;;;10.63;9.55;;;14.30;99.90;;;;;;5014134;28;20073;-77
2022/10/14 09:22:12;;;;;;;9.82;8.77;;;14.30;99.90;;;;;;5018434;28;20041;-76
2022/10/14 09:24:38;;;;;;;11.85;10.20;;;14.30;99.90;;;;;;5028738;28;20396;-76
2022/10/14 09:27:16;;;;;;;13.20;10.52;;;14.30;99.90;;;;;;5032521;28;20618;-77
2022/10/14 09:29:56;;;;;;;9.88;8.63;;;14.40;99.90;;;;;;5031991;28;20036;-75
2022/10/14 09:32:44;;;;;;;8.98;8.10;;;14.30;99.90;;;;;;5027809;28;21015;-74
2022/10/14 09:35:29;;;;;;;13.73;11.82;;;14.40;99.90;;;;;;5026355;28;20029;-75
2022/10/14 09:37:55;;;;;;;12.45;9.93;;;14.40;99.90;;;;;;5031143;28;20060;-74
2022/10/14 09:40:33;;;;;;;10.48;8.82;;;14.40;99.90;;;;;;5030276;28;20060;-76
2022/10/14 09:43:08;;;;;;;11.75;10.55;;;14.40;99.90;;;;;;5032903;28;20029;-76
2022/10/14 09:45:48;;;;;;;14.30;12.77;;;14.50;99.90;;;;;;5026695;28;20037;-75
2022/10/14 09:48:19;;;;;;;9.32;8.43;;;14.50;99.90;;;;;;5029777;28;20404;-76
2022/10/14 09:50:52;;;;;;;10.65;8.93;;;14.50;99.90;;;;;;5030485;28;20048;-76
2022/10/14 09:53:26;;;;;;;;;;;14.50;99.90;;;;;;5013879;28;20495;-75
2022/10/14 09:56:01;;;;;;;7.75;6.85;;;14.60;99.90;;;;;;4995351;28;19909;-76
2022/10/14 09:58:46;;;;;;;9.60;8.35;;;14.70;99.90;;;;;;5025001;28;20038;-74
2022/10/14 10:01:36;;;;;;;;;;;14.70;99.90;;;;;;5032858;28;20048;-74
2022/10/14 10:04:30;;;;;;;7.78;6.28;;;14.70;99.90;;;;;;5030945;28;19909;-74
2022/10/14 10:06:59;;;;;;;7.60;6.88;;;14.80;99.90;;;;;;5034651;28;20029;-74
2022/10/14 10:09:25;;;;;;;8.15;7.10;;;14.90;99.90;;;;;;5027403;28;20041;-73
2022/10/14 10:11:53;;;;;;;9.05;8.15;;;14.90;99.90;;;;;;5031755;28;20029;-74
2022/10/14 10:14:32;;;;;;;8.38;7.63;;;14.90;99.90;;;;;;5028524;28;20064;-74
2022/10/14 10:17:08;;;;;;;7.63;6.85;;;14.90;99.90;;;;;;5031405;28;20025;-73
2022/10/14 10:19:38;;;;;;;7.20;6.57;;;15.00;99.90;;;;;;5032607;28;20042;-75
2022/10/14 10:22:21;;;;;;;7.95;7.22;;;15.00;99.90;;;;;;5027504;28;20273;-74
2022/10/14 10:24:50;;;;;;;7.72;7.00;;;15.00;99.90;;;;;;5018158;28;20042;-74
2022/10/14 10:27:44;;;;;;;6.32;5.72;;;15.00;99.90;;;;;;5011044;28;20029;-73
2022/10/14 10:30:16;;;;;;;7.38;6.68;;;15.00;99.90;;;;;;5021561;28;20387;-73
2022/10/14 10:33:20;;;;;;;9.98;8.63;;;15.10;99.90;;;;;;5012267;28;20044;-73
2022/10/14 10:36:08;;;;;;;11.98;10.80;;;15.10;99.90;;;;;;5020681;28;20033;-73
2022/10/14 10:39:00;;;;;;;11.48;10.38;;;15.10;99.90;;;;;;5024280;28;20049;-73
2022/10/14 10:41:52;;;;;;;7.93;7.22;;;15.10;99.90;;;;;;5030238;28;20041;-73
2022/10/14 10:44:39;;;;;;;7.38;6.70;;;15.10;99.90;;;;;;5035589;28;20044;-74
2022/10/14 10:47:30;;;;;;;8.90;8.05;;;15.20;99.90;;;;;;5033007;28;20038;-74
2022/10/14 10:50:22;;;;;;;9.07;8.18;;;15.30;99.90;;;;;;5014192;28;20037;-73
2022/10/14 10:53:06;;;;;;;11.00;9.15;;;15.40;99.90;;;;;;5025546;28;20064;-74
2022/10/14 10:55:42;;;;;;;9.43;8.52;;;15.40;99.90;;;;;;5045043;28;20029;-73
2022/10/14 10:58:40;;;;;;;9.85;8.85;;;15.40;99.90;;;;;;5026986;28;20515;-73
2022/10/14 11:01:24;;;;;;;7.53;6.82;;;15.50;99.90;;;;;;5031750;28;20048;-73
2022/10/14 11:04:00;;;;;;;7.47;6.80;;;15.60;99.90;;;;;;5044320;28;20029;-72
2022/10/14 11:12:37;;;;;;;14.57;13.15;;;15.70;99.90;;;;;;5030665;28;20049;-72
2022/10/14 11:15:26;;;;;;;13.35;12.05;;;15.80;99.90;;;;;;5025196;28;20064;-72
2022/10/14 11:18:02;;;;;;;9.38;8.48;;;15.90;99.90;;;;;;5031160;28;20037;-72
2022/10/14 11:20:45;;;;;;;9.48;8.52;;;15.90;99.90;;;;;;5030580;28;20037;-72
2022/10/14 11:23:18;;;;;;;11.27;10.25;;;15.80;99.90;;;;;;5028497;28;20465;-72
2022/10/14 11:25:52;;;;;;;9.75;8.85;;;15.80;99.90;;;;;;5023429;28;20044;-72
2022/10/14 11:28:35;;;;;;;8.63;7.82;;;15.80;99.90;;;;;;5017891;28;20034;-73
2022/10/14 11:31:22;;;;;;;11.15;10.05;;;15.80;99.90;;;;;;5028474;28;20041;-73
2022/10/14 11:34:03;;;;;;;10.27;9.27;;;15.70;99.90;;;;;;5021886;28;20045;-72
2022/10/14 11:36:43;;;;;;;12.38;10.68;;;15.60;99.90;;;;;;5023478;28;20029;-73
2022/10/14 11:39:17;;;;;;;11.10;10.10;;;15.60;99.90;;;;;;5024426;28;20040;-73
2022/10/14 11:42:00;;;;;;;9.52;8.73;;;15.60;99.90;;;;;;5014331;28;20034;-73
2022/10/14 11:44:36;;;;;;;9.88;9.02;;;15.60;99.90;;;;;;5017741;28;20503;-72
2022/10/14 11:47:30;;;;;;;8.93;8.13;;;15.60;99.90;;;;;;5028495;28;20029;-72
2022/10/14 11:50:16;;;;;;;11.27;10.18;;;15.70;99.90;;;;;;5022974;28;20045;-72
2022/10/14 11:52:48;;;;;;;10.98;9.88;;;15.60;99.90;;;;;;5028820;28;20041;-73
2022/10/14 11:55:19;;;;;;;11.05;9.80;;;15.60;99.90;;;;;;5026956;28;20717;-74
2022/10/14 11:57:53;;;;;;;16.75;14.93;;;15.70;99.90;;;;;;5022673;28;20037;-74
2022/10/14 12:00:22;;;;;;;12.98;11.43;;;15.70;99.90;;;;;;5022729;28;20037;-74
2022/10/14 12:03:02;;;;;;;12.93;11.57;;;15.70;99.90;;;;;;5016929;28;20044;-73
2022/10/14 12:05:35;;;;;;;16.05;13.45;;;15.60;99.90;;;;;;5024730;28;20026;-73
2022/10/14 12:08:44;;;;;;;10.70;9.63;;;15.60;99.90;;;;;;5019550;28;20025;-74
2022/10/14 12:11:19;;;;;;;13.57;12.25;;;15.60;99.90;;;;;;5014708;28;20049;-74
2022/10/14 12:13:51;;;;;;;9.68;8.73;;;15.60;99.90;;;;;;5018759;28;20053;-75
2022/10/14 12:16:20;;;;;;;12.73;11.38;;;15.60;99.90;;;;;;5025863;28;20428;-75
2022/10/14 12:18:52;;;;;;;13.70;11.10;;;15.50;99.90;;;;;;5026580;28;20037;-76
2022/10/14 12:21:49;;;;;;;9.85;8.85;;;15.50;99.90;;;;;;5028818;28;20036;-76
2022/10/14 12:24:19;;;;;;;7.18;6.18;;;15.50;99.90;;;;;;5024230;28;20056;-76
2022/10/14 12:27:07;;;;;;;8.43;7.55;;;15.50;99.90;;;;;;5028698;28;20033;-77
2022/10/14 12:29:39;;;;;;;11.48;9.20;;;15.50;99.90;;;;;;5027097;28;20033;-78
2022/10/14 12:32:07;;;;;;;10.07;7.80;;;15.50;99.90;;;;;;5026391;28;20040;-77
2022/10/14 12:34:39;;;;;;;7.25;6.30;;;15.50;99.90;;;;;;5029521;28;20021;-76
2022/10/14 12:37:33;;;;;;;7.40;6.23;;;15.50;99.90;;;;;;5028496;28;20033;-76
2022/10/14 12:40:04;;;;;;;7.68;6.55;;;15.50;99.90;;;;;;5026120;28;20037;-76
2022/10/14 12:42:37;;;;;;;9.65;7.40;;;15.60;99.90;;;;;;5008856;28;20306;-77
2022/10/14 12:45:19;;;;;;;9.57;7.93;;;15.50;99.90;;;;;;5031556;28;20021;-76
2022/10/14 12:47:46;;;;;;;6.75;5.43;;;15.60;99.90;;;;;;5032908;28;20025;-76
2022/10/14 12:50:16;;;;;;;7.90;5.65;;;15.50;99.90;;;;;;5024547;28;20500;-76
2022/10/14 12:52:53;;;;;;;7.95;6.43;;;15.60;99.90;;;;;;5023650;28;20377;-77
2022/10/14 12:55:23;;;;;;;10.77;7.72;;;15.70;99.90;;;;;;5028787;28;20499;-76
2022/10/14 12:57:54;;;;;;;11.32;8.80;;;15.80;99.90;;;;;;5035000;28;20050;-76
2022/10/14 13:00:27;;;;;;;6.13;4.35;;;15.80;99.90;;;;;;5031341;28;20045;-75
2022/10/14 13:03:00;;;;;;;5.32;4.57;;;15.80;99.90;;;;;;5015387;28;20034;-76
2022/10/14 13:05:38;;;;;;;6.18;5.47;;;15.90;99.90;;;;;;5008725;28;20147;-75
2022/10/14 13:08:14;;;;;;;5.75;4.50;;;15.80;99.90;;;;;;5029498;28;20468;-75